Weather at Ansongo Airport

Public forecast

Using degrees Celsius for public forecast. Weather courtesy of forecast.io.

Closest aviation weather report (METAR) to Ansongo Airport

Closest report is Gao Airport, 43.7 nm (81.0 km) NW.

2024/07/25 09:00 (retrieved 23 minutes ago)

GAGO 250900Z 27012KT 8000 FEW030 27/22 Q1011 NOSIG

Closest aviation forecast (TAF) to Ansongo Airport

Closest forecast is Gao Airport, 43.7 nm (81.0 km) NW.

2024/07/25 06:03 (retrieved 3 hours ago)

TAF TAF GAGO 250500Z 2506/2606 25012KT 6000 FEW030 PROB40 TEMPO 2515/2520 09020G35KT 3000 TSRA BLDU BKN030 FEW040CB